sensor_id;sensor_type;location;lat;lon;timestamp;P1;durP1;ratioP1;P2;durP2;ratioP2
19653;SDS011;9975;48.046;7.804;2023-02-03T01:57:02;6.53;;;1.23;;
19653;SDS011;9975;48.046;7.804;2023-02-03T01:59:31;6.63;;;1.10;;
19653;SDS011;9975;48.046;7.804;2023-02-03T02:01:59;1.77;;;1.00;;
19653;SDS011;9975;48.046;7.804;2023-02-03T02:04:27;1.17;;;0.93;;
19653;SDS011;9975;48.046;7.804;2023-02-03T02:06:58;3.13;;;0.90;;
19653;SDS011;9975;48.046;7.804;2023-02-03T02:09:24;2.13;;;1.10;;
19653;SDS011;9975;48.046;7.804;2023-02-03T02:11:50;3.80;;;1.07;;
19653;SDS011;9975;48.046;7.804;2023-02-03T02:14:16;1.90;;;1.00;;
19653;SDS011;9975;48.046;7.804;2023-02-03T02:27:52;2.30;;;1.03;;
19653;SDS011;9975;48.046;7.804;2023-02-03T02:41:19;2.10;;;1.13;;
19653;SDS011;9975;48.046;7.804;2023-02-03T02:43:57;3.17;;;0.87;;
19653;SDS011;9975;48.046;7.804;2023-02-03T02:49:13;2.00;;;1.00;;
19653;SDS011;9975;48.046;7.804;2023-02-03T02:51:44;3.23;;;1.13;;
19653;SDS011;9975;48.046;7.804;2023-02-03T02:54:13;2.30;;;0.77;;
19653;SDS011;9975;48.046;7.804;2023-02-03T02:56:42;1.20;;;0.80;;
19653;SDS011;9975;48.046;7.804;2023-02-03T02:59:12;2.30;;;0.90;;
19653;SDS011;9975;48.046;7.804;2023-02-03T03:01:39;1.40;;;0.87;;
19653;SDS011;9975;48.046;7.804;2023-02-03T03:04:05;2.20;;;0.87;;
19653;SDS011;9975;48.046;7.804;2023-02-03T03:06:40;1.50;;;1.20;;
19653;SDS011;9975;48.046;7.804;2023-02-03T03:09:17;5.60;;;2.10;;
19653;SDS011;9975;48.046;7.804;2023-02-03T03:11:49;1.47;;;0.70;;
19653;SDS011;9975;48.046;7.804;2023-02-03T03:14:18;3.70;;;1.07;;
19653;SDS011;9975;48.046;7.804;2023-02-03T03:16:49;4.40;;;1.23;;
19653;SDS011;9975;48.046;7.804;2023-02-03T03:19:24;2.70;;;1.30;;
19653;SDS011;9975;48.046;7.804;2023-02-03T03:21:56;3.90;;;0.90;;
19653;SDS011;9975;48.046;7.804;2023-02-03T03:24:30;1.37;;;0.70;;
19653;SDS011;9975;48.046;7.804;2023-02-03T03:29:55;2.43;;;0.90;;
19653;SDS011;9975;48.046;7.804;2023-02-03T03:32:25;6.38;;;1.08;;
19653;SDS011;9975;48.046;7.804;2023-02-03T03:34:56;8.13;;;3.03;;
19653;SDS011;9975;48.046;7.804;2023-02-03T03:40:50;3.90;;;1.20;;
19653;SDS011;9975;48.046;7.804;2023-02-03T03:43:24;4.70;;;1.43;;
19653;SDS011;9975;48.046;7.804;2023-02-03T03:46:05;1.37;;;0.93;;
19653;SDS011;9975;48.046;7.804;2023-02-03T03:48:49;3.27;;;0.93;;
19653;SDS011;9975;48.046;7.804;2023-02-03T03:53:46;1.40;;;0.97;;
19653;SDS011;9975;48.046;7.804;2023-02-03T03:56:17;3.43;;;0.97;;
19653;SDS011;9975;48.046;7.804;2023-02-03T03:58:46;4.93;;;1.50;;
19653;SDS011;9975;48.046;7.804;2023-02-03T04:01:15;2.33;;;1.17;;
19653;SDS011;9975;48.046;7.804;2023-02-03T04:03:45;2.03;;;1.30;;
19653;SDS011;9975;48.046;7.804;2023-02-03T04:06:18;3.40;;;0.90;;
19653;SDS011;9975;48.046;7.804;2023-02-03T04:08:43;8.37;;;1.17;;
19653;SDS011;9975;48.046;7.804;2023-02-03T04:11:09;5.27;;;1.77;;
19653;SDS011;9975;48.046;7.804;2023-02-03T04:13:34;8.40;;;1.40;;
19653;SDS011;9975;48.046;7.804;2023-02-03T04:16:00;2.10;;;1.03;;
19653;SDS011;9975;48.046;7.804;2023-02-03T04:18:26;4.90;;;1.20;;
19653;SDS011;9975;48.046;7.804;2023-02-03T04:20:52;4.50;;;1.27;;
19653;SDS011;9975;48.046;7.804;2023-02-03T04:23:18;5.17;;;1.07;;
19653;SDS011;9975;48.046;7.804;2023-02-03T04:25:43;2.33;;;1.10;;
19653;SDS011;9975;48.046;7.804;2023-02-03T04:28:09;2.70;;;1.27;;
19653;SDS011;9975;48.046;7.804;2023-02-03T04:30:34;3.13;;;1.00;;
19653;SDS011;9975;48.046;7.804;2023-02-03T04:33:00;3.27;;;1.10;;
19653;SDS011;9975;48.046;7.804;2023-02-03T04:35:25;2.50;;;2.20;;
19653;SDS011;9975;48.046;7.804;2023-02-03T04:37:51;2.17;;;1.40;;
19653;SDS011;9975;48.046;7.804;2023-02-03T04:40:17;4.97;;;2.50;;
19653;SDS011;9975;48.046;7.804;2023-02-03T04:42:43;5.37;;;1.87;;
19653;SDS011;9975;48.046;7.804;2023-02-03T04:45:10;9.93;;;2.43;;
19653;SDS011;9975;48.046;7.804;2023-02-03T04:47:36;8.87;;;2.10;;
19653;SDS011;9975;48.046;7.804;2023-02-03T04:50:03;6.88;;;2.50;;
19653;SDS011;9975;48.046;7.804;2023-02-03T04:52:29;8.50;;;3.10;;
19653;SDS011;9975;48.046;7.804;2023-02-03T04:54:54;34.90;;;17.40;;
19653;SDS011;9975;48.046;7.804;2023-02-03T04:57:20;31.33;;;15.77;;
19653;SDS011;9975;48.046;7.804;2023-02-03T04:59:46;28.57;;;16.60;;
19653;SDS011;9975;48.046;7.804;2023-02-03T05:02:12;12.23;;;6.50;;
19653;SDS011;9975;48.046;7.804;2023-02-03T05:04:37;6.90;;;1.63;;
19653;SDS011;9975;48.046;7.804;2023-02-03T05:07:03;3.63;;;1.80;;
19653;SDS011;9975;48.046;7.804;2023-02-03T05:09:28;4.83;;;1.70;;
19653;SDS011;9975;48.046;7.804;2023-02-03T05:11:54;2.83;;;1.07;;
19653;SDS011;9975;48.046;7.804;2023-02-03T05:14:20;7.37;;;1.43;;
19653;SDS011;9975;48.046;7.804;2023-02-03T05:16:46;2.50;;;1.80;;
19653;SDS011;9975;48.046;7.804;2023-02-03T05:19:12;1.70;;;1.43;;
19653;SDS011;9975;48.046;7.804;2023-02-03T05:21:38;4.73;;;2.07;;
19653;SDS011;9975;48.046;7.804;2023-02-03T05:24:03;6.93;;;1.33;;
19653;SDS011;9975;48.046;7.804;2023-02-03T05:26:31;4.57;;;1.40;;
19653;SDS011;9975;48.046;7.804;2023-02-03T05:28:57;3.20;;;1.93;;
19653;SDS011;9975;48.046;7.804;2023-02-03T05:31:23;4.63;;;1.00;;
19653;SDS011;9975;48.046;7.804;2023-02-03T05:33:49;2.80;;;1.50;;
19653;SDS011;9975;48.046;7.804;2023-02-03T05:36:15;4.73;;;1.73;;
19653;SDS011;9975;48.046;7.804;2023-02-03T05:38:41;3.70;;;1.30;;
19653;SDS011;9975;48.046;7.804;2023-02-03T05:41:08;5.53;;;1.47;;
19653;SDS011;9975;48.046;7.804;2023-02-03T05:43:53;3.20;;;1.17;;
19653;SDS011;9975;48.046;7.804;2023-02-03T05:46:18;7.80;;;1.23;;
19653;SDS011;9975;48.046;7.804;2023-02-03T05:48:44;2.10;;;1.00;;
19653;SDS011;9975;48.046;7.804;2023-02-03T05:51:10;1.83;;;1.00;;
19653;SDS011;9975;48.046;7.804;2023-02-03T05:53:36;1.77;;;1.17;;
19653;SDS011;9975;48.046;7.804;2023-02-03T05:56:01;6.50;;;1.83;;
19653;SDS011;9975;48.046;7.804;2023-02-03T05:58:27;3.83;;;1.43;;
19653;SDS011;9975;48.046;7.804;2023-02-03T06:00:53;2.93;;;1.50;;
19653;SDS011;9975;48.046;7.804;2023-02-03T06:03:18;3.43;;;1.47;;
19653;SDS011;9975;48.046;7.804;2023-02-03T06:05:44;2.53;;;1.27;;
19653;SDS011;9975;48.046;7.804;2023-02-03T06:08:10;3.67;;;1.53;;
19653;SDS011;9975;48.046;7.804;2023-02-03T06:10:35;3.67;;;1.63;;
19653;SDS011;9975;48.046;7.804;2023-02-03T06:13:11;1.27;;;1.17;;
19653;SDS011;9975;48.046;7.804;2023-02-03T06:15:38;3.33;;;1.70;;
19653;SDS011;9975;48.046;7.804;2023-02-03T06:18:04;2.20;;;1.40;;
19653;SDS011;9975;48.046;7.804;2023-02-03T06:20:30;2.30;;;1.20;;
19653;SDS011;9975;48.046;7.804;2023-02-03T06:22:56;6.60;;;2.10;;
19653;SDS011;9975;48.046;7.804;2023-02-03T06:25:21;4.60;;;1.43;;
19653;SDS011;9975;48.046;7.804;2023-02-03T06:27:48;10.67;;;4.33;;
19653;SDS011;9975;48.046;7.804;2023-02-03T06:30:14;26.60;;;10.87;;
19653;SDS011;9975;48.046;7.804;2023-02-03T06:32:40;25.53;;;9.80;;
19653;SDS011;9975;48.046;7.804;2023-02-03T06:35:05;11.23;;;4.20;;
19653;SDS011;9975;48.046;7.804;2023-02-03T06:37:50;43.10;;;13.80;;
19653;SDS011;9975;48.046;7.804;2023-02-03T06:40:16;12.17;;;6.63;;
19653;SDS011;9975;48.046;7.804;2023-02-03T06:42:47;24.33;;;6.90;;
19653;SDS011;9975;48.046;7.804;2023-02-03T06:45:15;9.57;;;2.80;;
19653;SDS011;9975;48.046;7.804;2023-02-03T06:47:41;3.80;;;1.30;;
19653;SDS011;9975;48.046;7.804;2023-02-03T06:50:09;3.90;;;1.20;;
19653;SDS011;9975;48.046;7.804;2023-02-03T06:52:40;3.27;;;1.00;;
19653;SDS011;9975;48.046;7.804;2023-02-03T06:55:06;2.37;;;1.20;;
19653;SDS011;9975;48.046;7.804;2023-02-03T06:57:32;2.57;;;1.33;;
19653;SDS011;9975;48.046;7.804;2023-02-03T06:59:58;4.60;;;1.23;;
19653;SDS011;9975;48.046;7.804;2023-02-03T07:02:24;2.70;;;1.20;;
19653;SDS011;9975;48.046;7.804;2023-02-03T07:04:50;5.43;;;1.47;;
19653;SDS011;9975;48.046;7.804;2023-02-03T07:07:16;3.20;;;1.30;;
19653;SDS011;9975;48.046;7.804;2023-02-03T07:09:42;6.23;;;1.47;;
19653;SDS011;9975;48.046;7.804;2023-02-03T07:12:08;5.10;;;1.57;;
19653;SDS011;9975;48.046;7.804;2023-02-03T07:14:34;1.80;;;1.00;;
19653;SDS011;9975;48.046;7.804;2023-02-03T07:17:00;4.50;;;1.53;;
19653;SDS011;9975;48.046;7.804;2023-02-03T07:19:27;4.97;;;2.73;;
19653;SDS011;9975;48.046;7.804;2023-02-03T07:21:53;2.97;;;1.67;;
19653;SDS011;9975;48.046;7.804;2023-02-03T07:24:19;2.77;;;1.53;;
19653;SDS011;9975;48.046;7.804;2023-02-03T07:26:44;4.40;;;2.90;;
19653;SDS011;9975;48.046;7.804;2023-02-03T07:29:10;1.30;;;1.13;;
19653;SDS011;9975;48.046;7.804;2023-02-03T07:31:36;4.57;;;1.47;;
19653;SDS011;9975;48.046;7.804;2023-02-03T07:34:02;2.27;;;2.07;;
19653;SDS011;9975;48.046;7.804;2023-02-03T07:36:28;1.33;;;1.03;;
19653;SDS011;9975;48.046;7.804;2023-02-03T07:38:54;6.90;;;1.47;;
19653;SDS011;9975;48.046;7.804;2023-02-03T07:41:19;5.00;;;1.20;;
19653;SDS011;9975;48.046;7.804;2023-02-03T07:43:45;4.43;;;0.80;;
19653;SDS011;9975;48.046;7.804;2023-02-03T07:46:12;2.20;;;1.10;;
19653;SDS011;9975;48.046;7.804;2023-02-03T07:48:38;1.47;;;1.13;;
19653;SDS011;9975;48.046;7.804;2023-02-03T07:51:04;1.50;;;1.20;;
19653;SDS011;9975;48.046;7.804;2023-02-03T07:53:30;2.00;;;1.53;;
19653;SDS011;9975;48.046;7.804;2023-02-03T07:55:59;2.20;;;1.10;;
19653;SDS011;9975;48.046;7.804;2023-02-03T07:58:26;5.43;;;1.17;;
19653;SDS011;9975;48.046;7.804;2023-02-03T08:00:52;7.63;;;2.30;;
19653;SDS011;9975;48.046;7.804;2023-02-03T08:03:18;7.80;;;1.70;;
19653;SDS011;9975;48.046;7.804;2023-02-03T08:05:44;1.20;;;1.07;;
19653;SDS011;9975;48.046;7.804;2023-02-03T08:08:09;3.27;;;1.30;;
19653;SDS011;9975;48.046;7.804;2023-02-03T08:10:35;1.70;;;1.40;;
19653;SDS011;9975;48.046;7.804;2023-02-03T08:13:01;1.90;;;1.40;;
19653;SDS011;9975;48.046;7.804;2023-02-03T08:15:27;3.63;;;2.20;;
19653;SDS011;9975;48.046;7.804;2023-02-03T08:17:52;3.53;;;3.07;;
19653;SDS011;9975;48.046;7.804;2023-02-03T08:20:18;5.03;;;2.10;;
19653;SDS011;9975;48.046;7.804;2023-02-03T08:22:44;9.60;;;3.57;;
19653;SDS011;9975;48.046;7.804;2023-02-03T08:25:10;3.07;;;1.80;;
19653;SDS011;9975;48.046;7.804;2023-02-03T08:27:36;4.47;;;2.10;;
19653;SDS011;9975;48.046;7.804;2023-02-03T08:30:04;6.33;;;2.27;;
19653;SDS011;9975;48.046;7.804;2023-02-03T08:32:31;3.57;;;1.97;;
19653;SDS011;9975;48.046;7.804;2023-02-03T08:34:57;6.93;;;3.40;;
19653;SDS011;9975;48.046;7.804;2023-02-03T08:37:22;5.60;;;3.60;;
19653;SDS011;9975;48.046;7.804;2023-02-03T08:40:00;4.63;;;2.83;;
19653;SDS011;9975;48.046;7.804;2023-02-03T08:42:46;12.87;;;4.80;;
19653;SDS011;9975;48.046;7.804;2023-02-03T08:45:11;7.93;;;3.60;;
19653;SDS011;9975;48.046;7.804;2023-02-03T08:47:37;5.50;;;2.30;;
19653;SDS011;9975;48.046;7.804;2023-02-03T08:50:04;3.87;;;2.50;;
19653;SDS011;9975;48.046;7.804;2023-02-03T08:52:30;3.40;;;1.27;;
19653;SDS011;9975;48.046;7.804;2023-02-03T08:54:56;3.47;;;1.50;;
19653;SDS011;9975;48.046;7.804;2023-02-03T08:57:22;2.30;;;1.50;;
19653;SDS011;9975;48.046;7.804;2023-02-03T08:59:47;2.73;;;1.40;;
19653;SDS011;9975;48.046;7.804;2023-02-03T09:02:15;1.67;;;1.57;;
19653;SDS011;9975;48.046;7.804;2023-02-03T09:04:43;3.70;;;1.10;;
19653;SDS011;9975;48.046;7.804;2023-02-03T09:07:09;2.40;;;1.13;;
19653;SDS011;9975;48.046;7.804;2023-02-03T09:09:36;5.43;;;1.67;;
19653;SDS011;9975;48.046;7.804;2023-02-03T09:12:02;3.90;;;1.70;;
19653;SDS011;9975;48.046;7.804;2023-02-03T09:14:30;6.80;;;4.10;;
19653;SDS011;9975;48.046;7.804;2023-02-03T09:16:57;8.70;;;2.53;;
19653;SDS011;9975;48.046;7.804;2023-02-03T09:19:24;4.70;;;1.60;;
19653;SDS011;9975;48.046;7.804;2023-02-03T09:21:49;1.90;;;1.50;;
19653;SDS011;9975;48.046;7.804;2023-02-03T09:24:16;3.23;;;2.40;;
19653;SDS011;9975;48.046;7.804;2023-02-03T09:26:42;3.90;;;1.67;;
19653;SDS011;9975;48.046;7.804;2023-02-03T09:29:08;6.27;;;1.77;;
19653;SDS011;9975;48.046;7.804;2023-02-03T09:31:33;5.80;;;2.13;;
19653;SDS011;9975;48.046;7.804;2023-02-03T09:33:59;9.50;;;3.90;;
19653;SDS011;9975;48.046;7.804;2023-02-03T09:36:25;5.27;;;2.43;;
19653;SDS011;9975;48.046;7.804;2023-02-03T09:38:51;1.77;;;1.60;;
19653;SDS011;9975;48.046;7.804;2023-02-03T09:46:42;6.83;;;2.73;;
19653;SDS011;9975;48.046;7.804;2023-02-03T09:49:23;17.80;;;6.70;;
19653;SDS011;9975;48.046;7.804;2023-02-03T09:56:55;7.80;;;4.17;;
19653;SDS011;9975;48.046;7.804;2023-02-03T09:59:24;10.23;;;4.00;;
19653;SDS011;9975;48.046;7.804;2023-02-03T10:07:10;14.17;;;5.07;;
19653;SDS011;9975;48.046;7.804;2023-02-03T10:13:08;11.30;;;2.67;;
19653;SDS011;9975;48.046;7.804;2023-02-03T10:15:52;4.67;;;1.70;;
19653;SDS011;9975;48.046;7.804;2023-02-03T10:18:43;11.13;;;4.80;;
19653;SDS011;9975;48.046;7.804;2023-02-03T10:24:10;14.83;;;6.80;;
19653;SDS011;9975;48.046;7.804;2023-02-03T10:26:41;10.53;;;4.77;;
19653;SDS011;9975;48.046;7.804;2023-02-03T10:29:12;9.10;;;4.60;;
19653;SDS011;9975;48.046;7.804;2023-02-03T10:31:49;8.43;;;3.20;;
19653;SDS011;9975;48.046;7.804;2023-02-03T10:34:15;10.00;;;5.50;;
19653;SDS011;9975;48.046;7.804;2023-02-03T10:36:58;2.90;;;2.00;;
19653;SDS011;9975;48.046;7.804;2023-02-03T10:39:45;2.53;;;1.47;;
19653;SDS011;9975;48.046;7.804;2023-02-03T10:42:13;16.10;;;6.50;;
19653;SDS011;9975;48.046;7.804;2023-02-03T10:44:45;5.77;;;2.70;;
19653;SDS011;9975;48.046;7.804;2023-02-03T10:47:37;3.20;;;2.10;;
19653;SDS011;9975;48.046;7.804;2023-02-03T10:50:14;2.80;;;1.57;;
19653;SDS011;9975;48.046;7.804;2023-02-03T10:52:45;2.00;;;1.37;;
19653;SDS011;9975;48.046;7.804;2023-02-03T10:57:46;1.10;;;1.03;;
19653;SDS011;9975;48.046;7.804;2023-02-03T11:03:18;3.40;;;1.40;;
19653;SDS011;9975;48.046;7.804;2023-02-03T11:06:11;1.73;;;0.80;;
19653;SDS011;9975;48.046;7.804;2023-02-03T11:08:43;2.70;;;1.10;;
19653;SDS011;9975;48.046;7.804;2023-02-03T11:11:20;2.33;;;0.97;;
19653;SDS011;9975;48.046;7.804;2023-02-03T11:16:26;0.93;;;0.60;;
19653;SDS011;9975;48.046;7.804;2023-02-03T11:18:55;1.57;;;0.80;;
19653;SDS011;9975;48.046;7.804;2023-02-03T11:21:41;6.63;;;1.50;;
19653;SDS011;9975;48.046;7.804;2023-02-03T11:24:28;4.53;;;1.73;;
19653;SDS011;9975;48.046;7.804;2023-02-03T11:27:08;1.60;;;0.60;;
19653;SDS011;9975;48.046;7.804;2023-02-03T11:29:39;2.57;;;0.60;;
19653;SDS011;9975;48.046;7.804;2023-02-03T11:32:18;1.17;;;0.73;;
19653;SDS011;9975;48.046;7.804;2023-02-03T11:34:59;1.40;;;1.30;;
19653;SDS011;9975;48.046;7.804;2023-02-03T11:37:38;0.73;;;0.57;;
19653;SDS011;9975;48.046;7.804;2023-02-03T11:42:32;1.50;;;1.10;;
19653;SDS011;9975;48.046;7.804;2023-02-03T11:45:24;3.33;;;1.90;;
19653;SDS011;9975;48.046;7.804;2023-02-03T11:50:58;2.87;;;0.77;;
19653;SDS011;9975;48.046;7.804;2023-02-03T12:01:45;3.07;;;2.00;;
19653;SDS011;9975;48.046;7.804;2023-02-03T12:09:46;2.83;;;0.97;;
19653;SDS011;9975;48.046;7.804;2023-02-03T12:12:39;1.43;;;1.30;;
19653;SDS011;9975;48.046;7.804;2023-02-03T12:21:03;0.80;;;0.40;;
19653;SDS011;9975;48.046;7.804;2023-02-03T12:29:13;0.40;;;0.40;;
19653;SDS011;9975;48.046;7.804;2023-02-03T12:31:45;2.33;;;0.93;;
19653;SDS011;9975;48.046;7.804;2023-02-03T12:34:54;2.80;;;0.83;;
19653;SDS011;9975;48.046;7.804;2023-02-03T12:40:46;5.10;;;0.93;;
19653;SDS011;9975;48.046;7.804;2023-02-03T12:43:18;3.90;;;0.60;;
19653;SDS011;9975;48.046;7.804;2023-02-03T12:45:53;2.03;;;1.20;;
19653;SDS011;9975;48.046;7.804;2023-02-03T12:48:25;2.03;;;0.80;;
19653;SDS011;9975;48.046;7.804;2023-02-03T12:51:07;1.80;;;1.10;;
19653;SDS011;9975;48.046;7.804;2023-02-03T12:53:39;0.57;;;0.40;;
19653;SDS011;9975;48.046;7.804;2023-02-03T12:56:26;5.33;;;4.53;;
19653;SDS011;9975;48.046;7.804;2023-02-03T12:59:02;5.90;;;3.23;;
19653;SDS011;9975;48.046;7.804;2023-02-03T13:01:32;0.70;;;0.60;;
19653;SDS011;9975;48.046;7.804;2023-02-03T13:04:09;0.60;;;0.60;;
19653;SDS011;9975;48.046;7.804;2023-02-03T13:14:45;3.80;;;3.13;;
19653;SDS011;9975;48.046;7.804;2023-02-03T13:19:50;1.93;;;0.70;;
19653;SDS011;9975;48.046;7.804;2023-02-03T13:22:19;3.03;;;1.97;;
19653;SDS011;9975;48.046;7.804;2023-02-03T13:24:52;0.90;;;0.70;;
19653;SDS011;9975;48.046;7.804;2023-02-03T13:27:44;1.10;;;1.00;;
19653;SDS011;9975;48.046;7.804;2023-02-03T13:30:37;0.93;;;0.93;;
19653;SDS011;9975;48.046;7.804;2023-02-03T13:47:48;2.40;;;2.10;;
19653;SDS011;9975;48.046;7.804;2023-02-03T13:50:27;2.57;;;1.40;;
19653;SDS011;9975;48.046;7.804;2023-02-03T13:52:59;3.47;;;2.70;;
19653;SDS011;9975;48.046;7.804;2023-02-03T13:55:29;3.20;;;1.20;;
19653;SDS011;9975;48.046;7.804;2023-02-03T13:58:04;1.50;;;1.40;;
19653;SDS011;9975;48.046;7.804;2023-02-03T14:06:09;3.80;;;1.30;;
19653;SDS011;9975;48.046;7.804;2023-02-03T14:09:00;0.60;;;0.60;;
19653;SDS011;9975;48.046;7.804;2023-02-03T14:16:33;0.97;;;0.87;;
19653;SDS011;9975;48.046;7.804;2023-02-03T14:18:59;2.10;;;1.00;;
19653;SDS011;9975;48.046;7.804;2023-02-03T14:21:25;1.20;;;1.10;;
19653;SDS011;9975;48.046;7.804;2023-02-03T14:24:05;0.60;;;0.53;;
19653;SDS011;9975;48.046;7.804;2023-02-03T14:26:36;0.83;;;0.60;;
19653;SDS011;9975;48.046;7.804;2023-02-03T14:32:15;2.23;;;1.00;;
19653;SDS011;9975;48.046;7.804;2023-02-03T14:34:41;1.73;;;1.03;;
19653;SDS011;9975;48.046;7.804;2023-02-03T14:50:56;0.53;;;0.53;;
19653;SDS011;9975;48.046;7.804;2023-02-03T14:53:41;1.93;;;0.87;;
19653;SDS011;9975;48.046;7.804;2023-02-03T14:56:30;1.70;;;0.80;;
19653;SDS011;9975;48.046;7.804;2023-02-03T14:59:29;1.77;;;0.90;;
19653;SDS011;9975;48.046;7.804;2023-02-03T15:04:35;0.67;;;0.50;;
19653;SDS011;9975;48.046;7.804;2023-02-03T15:07:01;1.00;;;0.63;;
19653;SDS011;9975;48.046;7.804;2023-02-03T15:09:29;0.77;;;0.50;;
19653;SDS011;9975;48.046;7.804;2023-02-03T15:12:18;2.17;;;1.03;;
19653;SDS011;9975;48.046;7.804;2023-02-03T15:14:48;1.17;;;0.70;;
19653;SDS011;9975;48.046;7.804;2023-02-03T15:17:21;1.50;;;0.80;;
19653;SDS011;9975;48.046;7.804;2023-02-03T15:19:54;1.10;;;0.63;;
19653;SDS011;9975;48.046;7.804;2023-02-03T15:22:21;0.80;;;0.77;;
19653;SDS011;9975;48.046;7.804;2023-02-03T15:24:54;1.37;;;1.00;;
19653;SDS011;9975;48.046;7.804;2023-02-03T15:27:22;0.90;;;0.80;;
19653;SDS011;9975;48.046;7.804;2023-02-03T15:29:52;1.47;;;1.37;;
19653;SDS011;9975;48.046;7.804;2023-02-03T15:32:23;1.60;;;1.07;;
19653;SDS011;9975;48.046;7.804;2023-02-03T15:34:53;2.17;;;1.30;;
19653;SDS011;9975;48.046;7.804;2023-02-03T15:37:24;1.40;;;0.80;;
19653;SDS011;9975;48.046;7.804;2023-02-03T15:40:00;0.60;;;0.57;;
19653;SDS011;9975;48.046;7.804;2023-02-03T15:42:37;0.80;;;0.70;;
19653;SDS011;9975;48.046;7.804;2023-02-03T15:45:16;1.67;;;0.83;;
19653;SDS011;9975;48.046;7.804;2023-02-03T15:48:00;0.60;;;0.60;;
19653;SDS011;9975;48.046;7.804;2023-02-03T15:50:48;1.07;;;0.80;;
19653;SDS011;9975;48.046;7.804;2023-02-03T15:53:24;1.67;;;0.97;;
19653;SDS011;9975;48.046;7.804;2023-02-03T15:55:57;4.07;;;2.60;;
19653;SDS011;9975;48.046;7.804;2023-02-03T15:58:29;2.30;;;1.50;;
19653;SDS011;9975;48.046;7.804;2023-02-03T16:00:59;0.70;;;0.70;;
19653;SDS011;9975;48.046;7.804;2023-02-03T16:06:25;2.20;;;1.00;;
19653;SDS011;9975;48.046;7.804;2023-02-03T16:08:59;2.30;;;1.80;;
19653;SDS011;9975;48.046;7.804;2023-02-03T16:11:27;1.13;;;1.00;;
19653;SDS011;9975;48.046;7.804;2023-02-03T16:14:10;3.23;;;2.63;;
19653;SDS011;9975;48.046;7.804;2023-02-03T16:16:42;2.40;;;1.10;;
19653;SDS011;9975;48.046;7.804;2023-02-03T16:19:21;1.50;;;1.40;;
19653;SDS011;9975;48.046;7.804;2023-02-03T16:24:56;1.63;;;1.03;;
19653;SDS011;9975;48.046;7.804;2023-02-03T16:30:14;0.90;;;0.90;;
19653;SDS011;9975;48.046;7.804;2023-02-03T16:35:52;0.90;;;0.67;;
19653;SDS011;9975;48.046;7.804;2023-02-03T16:38:44;1.43;;;0.80;;
19653;SDS011;9975;48.046;7.804;2023-02-03T16:41:29;3.87;;;1.23;;
19653;SDS011;9975;48.046;7.804;2023-02-03T16:44:14;1.03;;;0.80;;
19653;SDS011;9975;48.046;7.804;2023-02-03T16:46:58;1.33;;;1.07;;
19653;SDS011;9975;48.046;7.804;2023-02-03T16:49:43;3.03;;;1.93;;
19653;SDS011;9975;48.046;7.804;2023-02-03T16:52:27;1.03;;;0.93;;
19653;SDS011;9975;48.046;7.804;2023-02-03T16:54:53;2.23;;;0.90;;
19653;SDS011;9975;48.046;7.804;2023-02-03T16:57:19;1.50;;;1.23;;
19653;SDS011;9975;48.046;7.804;2023-02-03T16:59:45;2.70;;;1.30;;
19653;SDS011;9975;48.046;7.804;2023-02-03T17:02:15;1.90;;;1.80;;
19653;SDS011;9975;48.046;7.804;2023-02-03T17:04:41;1.40;;;1.13;;
19653;SDS011;9975;48.046;7.804;2023-02-03T17:07:06;5.83;;;3.93;;
19653;SDS011;9975;48.046;7.804;2023-02-03T17:09:32;1.67;;;1.57;;
19653;SDS011;9975;48.046;7.804;2023-02-03T17:12:01;2.77;;;1.30;;
19653;SDS011;9975;48.046;7.804;2023-02-03T17:14:26;1.23;;;1.13;;
19653;SDS011;9975;48.046;7.804;2023-02-03T17:16:52;2.40;;;1.43;;
19653;SDS011;9975;48.046;7.804;2023-02-03T17:19:18;2.80;;;1.73;;
19653;SDS011;9975;48.046;7.804;2023-02-03T17:21:44;1.43;;;1.00;;
19653;SDS011;9975;48.046;7.804;2023-02-03T17:24:11;1.37;;;0.70;;
19653;SDS011;9975;48.046;7.804;2023-02-03T17:26:37;0.70;;;0.60;;
19653;SDS011;9975;48.046;7.804;2023-02-03T17:29:03;1.83;;;1.07;;
19653;SDS011;9975;48.046;7.804;2023-02-03T17:31:29;1.07;;;0.97;;
19653;SDS011;9975;48.046;7.804;2023-02-03T17:33:55;5.50;;;2.40;;
19653;SDS011;9975;48.046;7.804;2023-02-03T17:36:21;1.33;;;0.70;;
19653;SDS011;9975;48.046;7.804;2023-02-03T17:38:49;1.00;;;0.90;;
19653;SDS011;9975;48.046;7.804;2023-02-03T17:41:19;1.97;;;1.70;;
19653;SDS011;9975;48.046;7.804;2023-02-03T17:43:46;0.90;;;0.70;;
19653;SDS011;9975;48.046;7.804;2023-02-03T17:46:14;1.47;;;0.93;;
19653;SDS011;9975;48.046;7.804;2023-02-03T17:48:41;2.00;;;0.60;;
19653;SDS011;9975;48.046;7.804;2023-02-03T17:51:11;1.00;;;0.90;;
19653;SDS011;9975;48.046;7.804;2023-02-03T17:53:38;2.03;;;0.80;;
19653;SDS011;9975;48.046;7.804;2023-02-03T17:56:11;0.80;;;0.70;;
19653;SDS011;9975;48.046;7.804;2023-02-03T17:58:38;1.23;;;0.80;;
19653;SDS011;9975;48.046;7.804;2023-02-03T18:01:08;1.30;;;1.20;;
19653;SDS011;9975;48.046;7.804;2023-02-03T18:03:50;3.23;;;0.87;;
19653;SDS011;9975;48.046;7.804;2023-02-03T18:06:18;1.00;;;0.73;;
19653;SDS011;9975;48.046;7.804;2023-02-03T18:08:45;1.33;;;0.80;;
19653;SDS011;9975;48.046;7.804;2023-02-03T18:11:12;1.17;;;1.07;;
19653;SDS011;9975;48.046;7.804;2023-02-03T18:13:40;2.70;;;0.83;;
19653;SDS011;9975;48.046;7.804;2023-02-03T18:16:07;3.53;;;0.93;;
19653;SDS011;9975;48.046;7.804;2023-02-03T18:18:39;2.10;;;1.00;;
19653;SDS011;9975;48.046;7.804;2023-02-03T18:21:06;2.60;;;1.63;;
19653;SDS011;9975;48.046;7.804;2023-02-03T18:23:34;1.63;;;1.00;;
19653;SDS011;9975;48.046;7.804;2023-02-03T18:26:01;1.67;;;0.90;;
19653;SDS011;9975;48.046;7.804;2023-02-03T18:31:20;2.07;;;1.43;;
19653;SDS011;9975;48.046;7.804;2023-02-03T18:33:45;6.67;;;2.97;;
19653;SDS011;9975;48.046;7.804;2023-02-03T18:36:12;2.90;;;1.10;;
19653;SDS011;9975;48.046;7.804;2023-02-03T18:38:39;3.80;;;1.67;;
19653;SDS011;9975;48.046;7.804;2023-02-03T18:41:25;1.47;;;1.37;;
19653;SDS011;9975;48.046;7.804;2023-02-03T18:43:51;3.57;;;1.73;;
19653;SDS011;9975;48.046;7.804;2023-02-03T18:46:19;3.17;;;1.37;;
19653;SDS011;9975;48.046;7.804;2023-02-03T18:48:46;3.10;;;1.50;;
19653;SDS011;9975;48.046;7.804;2023-02-03T18:51:12;4.43;;;1.30;;
19653;SDS011;9975;48.046;7.804;2023-02-03T18:53:39;2.83;;;1.77;;
19653;SDS011;9975;48.046;7.804;2023-02-03T18:56:09;3.00;;;1.10;;
19653;SDS011;9975;48.046;7.804;2023-02-03T18:58:40;3.00;;;2.17;;
19653;SDS011;9975;48.046;7.804;2023-02-03T19:01:05;1.70;;;1.00;;
19653;SDS011;9975;48.046;7.804;2023-02-03T19:03:32;1.57;;;1.10;;
19653;SDS011;9975;48.046;7.804;2023-02-03T19:05:58;3.10;;;1.80;;
19653;SDS011;9975;48.046;7.804;2023-02-03T19:08:24;1.53;;;0.90;;
19653;SDS011;9975;48.046;7.804;2023-02-03T19:10:50;2.10;;;1.67;;
19653;SDS011;9975;48.046;7.804;2023-02-03T19:13:17;1.50;;;1.40;;
19653;SDS011;9975;48.046;7.804;2023-02-03T19:15:44;2.80;;;1.70;;
19653;SDS011;9975;48.046;7.804;2023-02-03T19:18:11;7.90;;;3.20;;
19653;SDS011;9975;48.046;7.804;2023-02-03T19:20:37;3.90;;;2.50;;
19653;SDS011;9975;48.046;7.804;2023-02-03T19:23:03;4.17;;;2.20;;
19653;SDS011;9975;48.046;7.804;2023-02-03T19:25:32;1.90;;;1.37;;
19653;SDS011;9975;48.046;7.804;2023-02-03T19:28:01;1.30;;;0.90;;
19653;SDS011;9975;48.046;7.804;2023-02-03T19:30:28;3.87;;;2.80;;
19653;SDS011;9975;48.046;7.804;2023-02-03T19:32:55;6.67;;;3.17;;
19653;SDS011;9975;48.046;7.804;2023-02-03T19:35:20;6.07;;;3.00;;
19653;SDS011;9975;48.046;7.804;2023-02-03T19:37:46;3.00;;;2.07;;
19653;SDS011;9975;48.046;7.804;2023-02-03T19:40:12;2.63;;;2.07;;
19653;SDS011;9975;48.046;7.804;2023-02-03T19:42:38;9.30;;;5.00;;
19653;SDS011;9975;48.046;7.804;2023-02-03T19:45:03;4.60;;;2.40;;
19653;SDS011;9975;48.046;7.804;2023-02-03T19:47:30;3.27;;;1.43;;
19653;SDS011;9975;48.046;7.804;2023-02-03T19:49:55;1.83;;;1.20;;
19653;SDS011;9975;48.046;7.804;2023-02-03T19:52:21;6.13;;;3.37;;
19653;SDS011;9975;48.046;7.804;2023-02-03T19:54:47;2.97;;;2.03;;
19653;SDS011;9975;48.046;7.804;2023-02-03T19:57:13;3.33;;;1.17;;
19653;SDS011;9975;48.046;7.804;2023-02-03T19:59:39;2.63;;;1.40;;
19653;SDS011;9975;48.046;7.804;2023-02-03T20:02:04;2.80;;;1.60;;